createdAt,value
2019-04-23T00:00:04.917Z,8.17
2019-04-23T00:02:41.763Z,7.87
2019-04-23T00:05:09.844Z,8.17
2019-04-23T00:07:51.251Z,8.73
2019-04-23T00:10:12.452Z,9.10
2019-04-23T00:12:43.682Z,8.87
2019-04-23T00:17:36.916Z,8.83
2019-04-23T00:20:06.718Z,9.03
2019-04-23T00:22:47.459Z,9.93
2019-04-23T00:28:01.717Z,9.80
2019-04-23T00:30:34.729Z,9.20
2019-04-23T00:32:48.070Z,9.90
2019-04-23T00:35:24.176Z,9.97
2019-04-23T00:37:47.704Z,9.50
2019-04-23T00:40:20.460Z,9.57
2019-04-23T00:45:30.716Z,9.37
2019-04-23T00:52:39.996Z,9.87
2019-04-23T00:55:12.844Z,10.77
2019-04-23T00:57:35.489Z,11.97
2019-04-23T01:00:10.351Z,11.20
2019-04-23T01:05:08.470Z,10.90
2019-04-23T01:10:02.829Z,10.53
2019-04-23T01:12:31.983Z,10.77
2019-04-23T01:14:56.365Z,10.90
2019-04-23T01:17:41.260Z,9.83
2019-04-23T01:19:58.029Z,9.80
2019-04-23T01:22:08.406Z,10.60
2019-04-23T01:24:50.309Z,10.53
2019-04-23T01:32:38.154Z,10.70
2019-04-23T01:40:11.857Z,11.63
2019-04-23T01:42:40.581Z,10.27
2019-04-23T01:45:08.472Z,11.77
2019-04-23T01:47:36.895Z,10.70
2019-04-23T01:50:08.363Z,11.23
2019-04-23T01:52:34.854Z,11.47
2019-04-23T01:55:01.440Z,11.73
2019-04-23T01:57:30.654Z,12.17
2019-04-23T01:59:54.914Z,11.40
2019-04-23T02:02:27.534Z,11.80
2019-04-23T02:04:55.777Z,11.57
2019-04-23T02:07:27.622Z,12.80
2019-04-23T02:09:53.200Z,10.87
2019-04-23T02:12:20.628Z,10.67
2019-04-23T02:14:50.147Z,10.83
2019-04-23T02:17:17.139Z,10.83
2019-04-23T02:19:46.105Z,11.57
2019-04-23T02:22:30.895Z,11.27
2019-04-23T02:24:54.548Z,11.40
2019-04-23T02:27:20.409Z,10.67
2019-04-23T02:30:05.814Z,12.37
2019-04-23T02:32:22.028Z,11.33
2019-04-23T02:35:03.700Z,10.53
2019-04-23T02:37:28.655Z,12.07
2019-04-23T02:40:00.466Z,10.23
2019-04-23T02:42:28.743Z,11.10
2019-04-23T02:44:39.517Z,11.90
2019-04-23T02:47:17.467Z,10.90
2019-04-23T02:52:34.221Z,10.23
2019-04-23T03:04:56.341Z,11.20
2019-04-23T03:07:22.314Z,10.67
2019-04-23T03:14:46.247Z,11.13
2019-04-23T03:19:49.775Z,11.10
2019-04-23T03:22:11.895Z,15.63
2019-04-23T03:25:10.755Z,11.13
2019-04-23T03:29:57.953Z,12.30
2019-04-23T03:39:56.559Z,10.73
2019-04-23T03:47:16.644Z,11.10
2019-04-23T03:49:43.280Z,11.17
2019-04-23T03:52:12.094Z,11.40
2019-04-23T03:57:13.417Z,10.90
2019-04-23T03:59:36.890Z,10.47
2019-04-23T04:02:09.917Z,11.40
2019-04-23T04:07:08.489Z,11.27
2019-04-23T04:09:34.130Z,11.30
2019-04-23T04:11:45.908Z,11.00
2019-04-23T04:17:09.315Z,10.13
2019-04-23T04:19:31.550Z,10.60
2019-04-23T04:21:53.714Z,10.93
2019-04-23T04:24:28.944Z,10.13
2019-04-23T04:26:51.441Z,11.30
2019-04-23T04:34:33.029Z,11.13
2019-04-23T04:37:18.290Z,10.30
2019-04-23T04:38:59.150Z,12.33
2019-04-23T04:41:31.227Z,12.13
2019-04-23T04:44:22.267Z,11.50
2019-04-23T04:46:50.104Z,11.60
2019-04-23T04:56:32.699Z,10.67
2019-04-23T04:58:53.005Z,11.00
2019-04-23T05:01:25.831Z,10.97
2019-04-23T05:03:36.564Z,10.73
2019-04-23T05:06:31.159Z,11.77
2019-04-23T05:08:48.023Z,13.03
2019-04-23T05:13:47.615Z,11.33
2019-04-23T05:16:06.079Z,11.07
2019-04-23T05:18:38.163Z,10.07
2019-04-23T05:21:08.241Z,11.23
2019-04-23T05:23:54.063Z,11.70
2019-04-23T05:26:10.349Z,11.97
2019-04-23T05:28:44.571Z,11.30
2019-04-23T05:31:08.610Z,11.37
2019-04-23T05:33:28.929Z,11.83
2019-04-23T05:36:12.774Z,10.67
2019-04-23T05:41:03.858Z,10.23
2019-04-23T05:43:27.840Z,10.90
2019-04-23T05:45:57.391Z,12.80
2019-04-23T05:50:57.757Z,10.13
2019-04-23T05:53:18.529Z,11.70
2019-04-23T05:55:51.756Z,11.43
2019-04-23T06:01:26.356Z,11.00
2019-04-23T06:03:16.323Z,12.33
2019-04-23T06:05:46.531Z,12.57
2019-04-23T06:08:17.763Z,12.30
2019-04-23T06:10:54.318Z,13.23
2019-04-23T06:13:17.048Z,13.90
2019-04-23T06:15:41.569Z,13.00
2019-04-23T06:18:20.083Z,12.53
2019-04-23T06:20:47.213Z,11.70
2019-04-23T06:23:05.729Z,11.73
2019-04-23T06:28:04.768Z,10.30
2019-04-23T06:30:42.219Z,10.43
2019-04-23T06:33:04.362Z,9.67
2019-04-23T06:35:32.012Z,10.80
2019-04-23T06:38:25.701Z,11.03
2019-04-23T06:40:27.649Z,10.50
2019-04-23T06:42:52.130Z,9.13
2019-04-23T06:45:24.841Z,9.47
2019-04-23T06:47:56.012Z,8.83
2019-04-23T06:50:17.746Z,8.77
2019-04-23T06:52:45.478Z,8.87
2019-04-23T06:55:26.598Z,8.33
2019-04-23T06:58:06.623Z,9.50
2019-04-23T07:00:13.855Z,10.63
2019-04-23T07:05:15.974Z,9.17
2019-04-23T07:10:05.918Z,7.80
2019-04-23T07:12:38.597Z,8.63
2019-04-23T07:15:13.309Z,8.93
2019-04-23T07:17:42.794Z,8.90
2019-04-23T07:20:02.705Z,8.23
2019-04-23T07:22:42.894Z,8.83
2019-04-23T07:24:54.444Z,7.13
2019-04-23T07:27:36.062Z,7.57
2019-04-23T07:29:58.537Z,7.67
2019-04-23T07:32:20.847Z,8.30
2019-04-23T07:34:59.280Z,8.30
2019-04-23T07:37:17.603Z,7.37
2019-04-23T07:40:06.938Z,6.90
2019-04-23T07:42:42.145Z,6.63
2019-04-23T07:45:19.268Z,7.27
2019-04-23T07:48:06.297Z,13.90
2019-04-23T07:50:33.541Z,7.07
2019-04-23T07:58:00.315Z,7.07
2019-04-23T08:00:27.625Z,6.70
2019-04-23T08:03:02.234Z,7.03
2019-04-23T08:05:22.591Z,6.33
2019-04-23T08:07:52.485Z,6.87
2019-04-23T08:10:14.161Z,6.30
2019-04-23T08:12:49.296Z,6.93
2019-04-23T08:15:15.017Z,5.83
2019-04-23T08:17:37.492Z,5.78
2019-04-23T08:20:09.452Z,6.83
2019-04-23T08:22:41.712Z,6.72
2019-04-23T08:25:12.468Z,6.60
2019-04-23T08:27:36.850Z,5.70
2019-04-23T08:30:15.261Z,6.17
2019-04-23T08:32:27.779Z,6.00
2019-04-23T08:35:01.216Z,6.03
2019-04-23T08:37:36.034Z,6.08
2019-04-23T08:39:52.486Z,6.33
2019-04-23T08:47:42.210Z,7.00
2019-04-23T08:50:15.388Z,5.67
2019-04-23T08:52:44.509Z,5.70
2019-04-23T08:55:11.154Z,6.03
2019-04-23T08:57:38.315Z,6.45
2019-04-23T09:00:09.336Z,5.92
2019-04-23T09:05:08.791Z,6.72
2019-04-23T09:10:04.383Z,6.83
2019-04-23T09:12:35.322Z,7.28
2019-04-23T09:15:00.829Z,7.58
2019-04-23T09:17:34.714Z,6.73
2019-04-23T09:20:15.054Z,6.67
2019-04-23T09:24:55.709Z,8.17
2019-04-23T09:30:00.980Z,6.67
2019-04-23T09:35:02.399Z,7.28
2019-04-23T09:37:52.598Z,7.67
2019-04-23T09:45:42.388Z,7.10
2019-04-23T09:48:04.574Z,7.12
2019-04-23T09:50:44.919Z,7.08
2019-04-23T09:53:17.141Z,6.62
2019-04-23T10:00:46.990Z,6.80
2019-04-23T10:02:59.099Z,6.70
2019-04-23T10:05:22.088Z,7.50
2019-04-23T10:07:47.070Z,7.25
2019-04-23T10:10:05.719Z,7.65
2019-04-23T10:12:32.324Z,8.88
2019-04-23T10:15:09.317Z,6.72
2019-04-23T10:17:28.483Z,15.58
2019-04-23T10:19:55.205Z,7.30
2019-04-23T10:22:23.033Z,7.35
2019-04-23T10:24:50.790Z,7.53
2019-04-23T10:27:18.780Z,7.90
2019-04-23T10:29:45.948Z,8.10
2019-04-23T10:32:13.565Z,8.33
2019-04-23T10:34:55.313Z,7.80
2019-04-23T10:37:09.474Z,7.97
2019-04-23T10:39:40.812Z,8.00
2019-04-23T10:42:05.772Z,7.22
2019-04-23T10:44:41.197Z,8.00
2019-04-23T10:47:53.933Z,7.42
2019-04-23T10:53:21.453Z,7.95
2019-04-23T10:55:51.097Z,8.50
2019-04-23T10:58:08.319Z,6.97
2019-04-23T11:00:40.066Z,7.60
2019-04-23T11:03:12.291Z,7.93
2019-04-23T11:05:47.587Z,7.80
2019-04-23T11:08:08.656Z,7.83
2019-04-23T11:10:26.264Z,7.77
2019-04-23T11:13:20.592Z,7.60
2019-04-23T11:15:50.289Z,7.50
2019-04-23T11:18:24.650Z,8.33
2019-04-23T11:22:57.471Z,9.57
2019-04-23T11:25:42.800Z,8.87
2019-04-23T11:28:11.089Z,8.30
2019-04-23T11:33:09.070Z,8.53
2019-04-23T11:38:21.988Z,9.27
2019-04-23T11:48:22.429Z,8.13
2019-04-23T11:53:10.372Z,8.30
2019-04-23T11:58:08.403Z,8.30
2019-04-23T12:00:34.983Z,7.67
2019-04-23T12:02:57.929Z,8.07
2019-04-23T12:06:03.676Z,8.43
2019-04-23T12:08:33.548Z,7.57
2019-04-23T12:11:26.880Z,7.07
2019-04-23T12:13:27.011Z,8.30
2019-04-23T12:15:53.483Z,8.00
2019-04-23T12:18:25.451Z,7.97
2019-04-23T12:21:15.702Z,8.60
2019-04-23T12:23:48.571Z,10.30
2019-04-23T12:26:15.507Z,8.33
2019-04-23T12:28:40.211Z,7.53
2019-04-23T12:30:57.304Z,7.87
2019-04-23T12:33:36.166Z,8.27
2019-04-23T12:36:05.379Z,7.40
2019-04-23T12:38:28.290Z,8.07
2019-04-23T12:40:55.923Z,7.77
2019-04-23T12:45:47.284Z,8.30
2019-04-23T12:48:31.312Z,7.60
2019-04-23T12:53:27.309Z,8.00
2019-04-23T12:58:23.811Z,7.83
2019-04-23T13:03:08.567Z,8.13
2019-04-23T13:05:32.656Z,7.20
2019-04-23T13:15:34.663Z,6.83
2019-04-23T13:18:19.527Z,7.00
2019-04-23T13:20:32.201Z,7.10
2019-04-23T13:23:13.545Z,7.07
2019-04-23T13:28:23.608Z,6.33
2019-04-23T13:30:56.901Z,6.60
2019-04-23T13:33:32.252Z,6.83
2019-04-23T13:38:27.249Z,6.47
2019-04-23T13:40:59.571Z,6.50
2019-04-23T13:46:00.901Z,6.43
2019-04-23T13:48:10.708Z,6.50
2019-04-23T13:50:53.451Z,6.83
2019-04-23T13:55:42.531Z,6.23
2019-04-23T13:58:21.626Z,6.60
2019-04-23T14:03:09.773Z,6.30
2019-04-23T14:05:49.391Z,6.63
2019-04-23T14:08:38.484Z,6.03
2019-04-23T14:10:44.926Z,6.67
2019-04-23T14:20:40.676Z,6.97
2019-04-23T14:23:14.148Z,6.57
2019-04-23T14:25:51.722Z,6.17
2019-04-23T14:30:48.608Z,6.47
2019-04-23T14:33:11.963Z,6.30
2019-04-23T14:35:33.188Z,6.30
2019-04-23T14:38:17.778Z,6.43
2019-04-23T14:40:35.531Z,6.10
2019-04-23T14:43:15.115Z,6.17
2019-04-23T14:45:44.195Z,6.37
2019-04-23T14:48:05.791Z,6.47
2019-04-23T14:53:12.511Z,6.57
2019-04-23T14:58:11.692Z,5.67
2019-04-23T15:03:04.495Z,7.30
2019-04-23T15:05:25.731Z,6.30
2019-04-23T15:07:50.705Z,6.40
2019-04-23T15:12:52.061Z,7.07
2019-04-23T15:15:21.263Z,6.57
2019-04-23T15:17:50.104Z,6.43
2019-04-23T15:20:15.358Z,5.77
2019-04-23T15:23:06.907Z,6.73
2019-04-23T15:25:26.243Z,6.90
2019-04-23T15:28:05.211Z,6.13
2019-04-23T15:30:03.728Z,6.43
2019-04-23T15:32:54.528Z,7.07
2019-04-23T15:35:23.449Z,7.10
2019-04-23T15:37:58.360Z,7.30
2019-04-23T15:40:11.193Z,6.07
2019-04-23T15:45:09.334Z,7.23
2019-04-23T15:47:31.852Z,6.73
2019-04-23T15:50:10.991Z,6.30
2019-04-23T15:52:39.778Z,6.23
2019-04-23T15:57:45.215Z,6.33
2019-04-23T16:00:10.850Z,6.83
2019-04-23T16:02:12.872Z,6.63
2019-04-23T16:04:40.376Z,6.60
2019-04-23T16:07:10.508Z,6.20
2019-04-23T16:10:09.250Z,6.57
2019-04-23T16:12:31.375Z,7.10
2019-04-23T16:15:07.834Z,6.27
2019-04-23T16:17:37.172Z,6.40
2019-04-23T16:20:16.450Z,6.57
2019-04-23T16:22:32.028Z,6.10
2019-04-23T16:25:08.066Z,6.60
2019-04-23T16:27:21.469Z,6.37
2019-04-23T16:30:09.670Z,6.67
2019-04-23T16:32:53.587Z,5.50
2019-04-23T16:35:19.879Z,5.83
2019-04-23T16:37:50.423Z,6.30
2019-04-23T16:40:10.305Z,7.03
2019-04-23T16:42:40.977Z,8.13
2019-04-23T16:45:12.361Z,6.30
2019-04-23T16:47:43.197Z,6.40
2019-04-23T16:50:04.992Z,6.63
2019-04-23T16:52:26.187Z,6.30
2019-04-23T16:54:58.487Z,6.30
2019-04-23T16:57:40.694Z,5.67
2019-04-23T17:00:15.161Z,6.67
2019-04-23T17:04:57.937Z,5.90
2019-04-23T17:07:15.411Z,6.40
2019-04-23T17:10:04.995Z,5.80
2019-04-23T17:12:16.257Z,6.10
2019-04-23T17:14:49.706Z,6.07
2019-04-23T17:17:09.973Z,6.27
2019-04-23T17:19:48.419Z,6.73
2019-04-23T17:22:13.138Z,7.43
2019-04-23T17:27:24.518Z,7.80
2019-04-23T17:29:41.807Z,6.83
2019-04-23T17:32:05.809Z,7.87
2019-04-23T17:34:47.899Z,6.87
2019-04-23T17:37:12.381Z,6.83
2019-04-23T17:39:49.219Z,7.03
2019-04-23T17:42:23.004Z,6.93
2019-04-23T17:44:51.551Z,6.97
2019-04-23T17:47:20.415Z,7.43
2019-04-23T17:49:51.310Z,6.40
2019-04-23T17:52:18.764Z,7.63
2019-04-23T17:54:48.445Z,6.57
2019-04-23T18:00:08.155Z,7.97
2019-04-23T18:02:40.988Z,8.23
2019-04-23T18:04:57.487Z,6.47
2019-04-23T18:07:30.289Z,7.30
2019-04-23T18:09:51.739Z,7.87
2019-04-23T18:12:22.435Z,7.97
2019-04-23T18:14:40.792Z,7.47
2019-04-23T18:17:13.529Z,7.40
2019-04-23T18:19:38.603Z,8.80
2019-04-23T18:22:19.149Z,7.90
2019-04-23T18:25:05.788Z,8.80
2019-04-23T18:27:33.030Z,8.97
2019-04-23T18:30:09.969Z,10.70
2019-04-23T18:32:44.714Z,10.20
2019-04-23T18:37:34.628Z,9.00
2019-04-23T18:39:59.251Z,8.23
2019-04-23T18:45:22.894Z,8.57
2019-04-23T18:47:44.566Z,7.90
2019-04-23T18:49:59.271Z,8.40
2019-04-23T18:52:33.113Z,9.13
2019-04-23T18:54:56.978Z,8.43
2019-04-23T18:57:40.030Z,7.57
2019-04-23T18:59:59.654Z,7.90
2019-04-23T19:07:42.390Z,6.77
2019-04-23T19:12:45.019Z,7.57
2019-04-23T19:15:23.537Z,8.57
2019-04-23T19:20:14.452Z,8.77
2019-04-23T19:25:07.147Z,9.30
2019-04-23T19:30:26.403Z,10.10
2019-04-23T19:32:35.541Z,7.83
2019-04-23T19:35:04.384Z,8.17
2019-04-23T19:37:43.547Z,8.77
2019-04-23T19:39:51.891Z,9.40
2019-04-23T19:42:31.215Z,8.87
2019-04-23T19:44:54.063Z,8.97
2019-04-23T19:47:30.351Z,8.33
2019-04-23T19:50:03.611Z,10.43
2019-04-23T19:52:30.482Z,8.80
2019-04-23T19:54:55.482Z,9.97
2019-04-23T19:57:19.510Z,8.63
2019-04-23T19:59:51.076Z,9.70
2019-04-23T20:04:41.088Z,8.37
2019-04-23T20:14:41.561Z,9.37
2019-04-23T20:17:23.275Z,9.40
2019-04-23T20:19:40.683Z,8.93
2019-04-23T20:24:39.753Z,10.73
2019-04-23T20:27:06.011Z,9.67
2019-04-23T20:29:58.425Z,10.90
2019-04-23T20:34:56.783Z,11.17
2019-04-23T20:37:13.660Z,9.50
2019-04-23T20:39:55.077Z,9.40
2019-04-23T20:47:15.580Z,10.73
2019-04-23T20:49:46.595Z,10.27
2019-04-23T20:52:07.168Z,11.03
2019-04-23T20:57:43.551Z,10.43
2019-04-23T21:00:44.117Z,12.40
2019-04-23T21:03:18.228Z,8.77
2019-04-23T21:05:24.092Z,10.73
2019-04-23T21:07:54.187Z,11.80
2019-04-23T21:10:34.922Z,11.07
2019-04-23T21:13:01.187Z,11.37
2019-04-23T21:15:18.317Z,10.93
2019-04-23T21:20:21.221Z,10.10
2019-04-23T21:22:41.452Z,10.20
2019-04-23T21:25:00.055Z,10.13
2019-04-23T21:32:47.369Z,9.87
2019-04-23T21:35:07.918Z,10.23
2019-04-23T21:37:32.203Z,10.30
2019-04-23T21:40:04.520Z,10.03
2019-04-23T21:45:04.831Z,9.90
2019-04-23T21:47:48.347Z,10.67
2019-04-23T21:52:34.808Z,10.60
2019-04-23T21:55:00.534Z,10.40
2019-04-23T21:57:36.941Z,9.90
2019-04-23T21:59:56.155Z,11.20
2019-04-23T22:02:27.694Z,10.47
2019-04-23T22:05:09.450Z,11.10
2019-04-23T22:07:28.639Z,10.47
2019-04-23T22:09:52.744Z,10.43
2019-04-23T22:12:17.010Z,10.57
2019-04-23T22:14:47.003Z,10.60
2019-04-23T22:17:16.884Z,12.30
2019-04-23T22:19:49.919Z,10.93
2019-04-23T22:22:11.146Z,10.80
2019-04-23T22:24:42.838Z,10.87
2019-04-23T22:27:02.858Z,11.23
2019-04-23T22:29:39.163Z,11.40
2019-04-23T22:31:56.267Z,11.37
2019-04-23T22:37:22.044Z,11.53
2019-04-23T22:39:31.985Z,10.73
2019-04-23T22:42:04.302Z,11.20
2019-04-23T22:44:31.012Z,10.53
2019-04-23T22:49:41.954Z,10.00
2019-04-23T22:52:02.702Z,10.23
2019-04-23T22:54:24.225Z,9.33
2019-04-23T22:56:54.798Z,10.50
2019-04-23T22:59:28.163Z,10.00
2019-04-23T23:04:20.327Z,10.30
2019-04-23T23:09:26.347Z,10.00
2019-04-23T23:14:24.143Z,9.37
2019-04-23T23:16:44.976Z,9.50
2019-04-23T23:19:24.591Z,9.73
2019-04-23T23:21:57.040Z,10.03
2019-04-23T23:24:06.151Z,10.77
2019-04-23T23:26:40.688Z,10.87
2019-04-23T23:29:02.292Z,10.23
2019-04-23T23:31:36.923Z,10.80
2019-04-23T23:34:04.724Z,9.17
2019-04-23T23:41:25.995Z,10.10
2019-04-23T23:44:07.624Z,11.00
2019-04-23T23:49:00.745Z,10.43
2019-04-23T23:56:14.296Z,10.33
2019-04-23T23:59:01.834Z,10.60
